sensor_id;sensor_type;location;lat;lon;timestamp;P1;durP1;ratioP1;P2;durP2;ratioP2
31308;SDS011;17936;52.446;10.840;2023-01-08T00:01:47;14.85;;;7.47;;
31308;SDS011;17936;52.446;10.840;2023-01-08T00:04:13;11.23;;;6.07;;
31308;SDS011;17936;52.446;10.840;2023-01-08T00:06:41;10.05;;;5.47;;
31308;SDS011;17936;52.446;10.840;2023-01-08T00:09:08;17.27;;;6.57;;
31308;SDS011;17936;52.446;10.840;2023-01-08T00:11:37;13.38;;;6.95;;
31308;SDS011;17936;52.446;10.840;2023-01-08T00:14:02;14.00;;;6.90;;
31308;SDS011;17936;52.446;10.840;2023-01-08T00:16:28;12.80;;;5.63;;
31308;SDS011;17936;52.446;10.840;2023-01-08T00:18:54;10.23;;;5.30;;
31308;SDS011;17936;52.446;10.840;2023-01-08T00:21:20;10.35;;;5.22;;
31308;SDS011;17936;52.446;10.840;2023-01-08T00:23:45;10.40;;;5.40;;
31308;SDS011;17936;52.446;10.840;2023-01-08T00:26:11;10.77;;;5.70;;
31308;SDS011;17936;52.446;10.840;2023-01-08T00:28:37;9.52;;;4.80;;
31308;SDS011;17936;52.446;10.840;2023-01-08T00:31:08;9.98;;;4.70;;
31308;SDS011;17936;52.446;10.840;2023-01-08T00:33:35;7.93;;;4.65;;
31308;SDS011;17936;52.446;10.840;2023-01-08T00:36:05;7.63;;;4.38;;
31308;SDS011;17936;52.446;10.840;2023-01-08T00:38:32;8.52;;;4.82;;
31308;SDS011;17936;52.446;10.840;2023-01-08T00:40:58;8.90;;;4.65;;
31308;SDS011;17936;52.446;10.840;2023-01-08T00:43:23;8.73;;;4.95;;
31308;SDS011;17936;52.446;10.840;2023-01-08T00:45:49;8.00;;;4.68;;
31308;SDS011;17936;52.446;10.840;2023-01-08T00:48:17;7.65;;;4.47;;
31308;SDS011;17936;52.446;10.840;2023-01-08T00:50:43;9.00;;;4.95;;
31308;SDS011;17936;52.446;10.840;2023-01-08T00:53:09;9.23;;;4.82;;
31308;SDS011;17936;52.446;10.840;2023-01-08T00:55:34;10.50;;;5.05;;
31308;SDS011;17936;52.446;10.840;2023-01-08T00:58:00;9.55;;;4.30;;
31308;SDS011;17936;52.446;10.840;2023-01-08T01:00:25;8.43;;;3.90;;
31308;SDS011;17936;52.446;10.840;2023-01-08T01:02:52;9.10;;;4.30;;
31308;SDS011;17936;52.446;10.840;2023-01-08T01:05:18;7.85;;;3.88;;
31308;SDS011;17936;52.446;10.840;2023-01-08T01:07:43;8.65;;;3.63;;
31308;SDS011;17936;52.446;10.840;2023-01-08T01:10:10;5.05;;;2.92;;
31308;SDS011;17936;52.446;10.840;2023-01-08T01:12:37;6.18;;;3.55;;
31308;SDS011;17936;52.446;10.840;2023-01-08T01:15:05;4.78;;;2.80;;
31308;SDS011;17936;52.446;10.840;2023-01-08T01:17:31;5.32;;;3.13;;
31308;SDS011;17936;52.446;10.840;2023-01-08T01:19:57;7.68;;;3.30;;
31308;SDS011;17936;52.446;10.840;2023-01-08T01:22:22;7.80;;;3.22;;
31308;SDS011;17936;52.446;10.840;2023-01-08T01:24:48;7.22;;;3.03;;
31308;SDS011;17936;52.446;10.840;2023-01-08T01:27:13;6.47;;;2.85;;
31308;SDS011;17936;52.446;10.840;2023-01-08T01:29:39;5.68;;;2.92;;
31308;SDS011;17936;52.446;10.840;2023-01-08T01:32:04;7.68;;;2.90;;
31308;SDS011;17936;52.446;10.840;2023-01-08T01:34:30;5.75;;;2.97;;
31308;SDS011;17936;52.446;10.840;2023-01-08T01:36:55;4.43;;;2.55;;
31308;SDS011;17936;52.446;10.840;2023-01-08T01:39:21;5.78;;;2.58;;
31308;SDS011;17936;52.446;10.840;2023-01-08T01:41:47;5.22;;;2.50;;
31308;SDS011;17936;52.446;10.840;2023-01-08T01:47:10;4.28;;;2.30;;
31308;SDS011;17936;52.446;10.840;2023-01-08T01:49:37;4.18;;;2.70;;
31308;SDS011;17936;52.446;10.840;2023-01-08T01:52:06;3.70;;;2.05;;
31308;SDS011;17936;52.446;10.840;2023-01-08T01:54:33;3.15;;;2.05;;
31308;SDS011;17936;52.446;10.840;2023-01-08T01:57:00;4.60;;;2.70;;
31308;SDS011;17936;52.446;10.840;2023-01-08T01:59:26;5.22;;;2.17;;
31308;SDS011;17936;52.446;10.840;2023-01-08T02:01:52;3.13;;;2.20;;
31308;SDS011;17936;52.446;10.840;2023-01-08T02:04:19;4.47;;;2.47;;
31308;SDS011;17936;52.446;10.840;2023-01-08T02:06:54;6.68;;;2.42;;
31308;SDS011;17936;52.446;10.840;2023-01-08T02:13:03;3.50;;;2.33;;
31308;SDS011;17936;52.446;10.840;2023-01-08T02:15:17;6.40;;;2.47;;
31308;SDS011;17936;52.446;10.840;2023-01-08T02:17:54;6.50;;;2.80;;
31308;SDS011;17936;52.446;10.840;2023-01-08T02:20:36;4.13;;;2.83;;
31308;SDS011;17936;52.446;10.840;2023-01-08T02:23:33;3.65;;;2.35;;
31308;SDS011;17936;52.446;10.840;2023-01-08T02:26:14;5.10;;;2.83;;
31308;SDS011;17936;52.446;10.840;2023-01-08T02:28:54;5.38;;;3.00;;
31308;SDS011;17936;52.446;10.840;2023-01-08T02:41:18;5.10;;;3.10;;
31308;SDS011;17936;52.446;10.840;2023-01-08T02:54:16;4.15;;;2.28;;
31308;SDS011;17936;52.446;10.840;2023-01-08T02:57:34;5.63;;;2.42;;
31308;SDS011;17936;52.446;10.840;2023-01-08T03:00:19;5.03;;;3.15;;
31308;SDS011;17936;52.446;10.840;2023-01-08T03:03:21;5.40;;;2.85;;
31308;SDS011;17936;52.446;10.840;2023-01-08T03:06:25;4.18;;;2.22;;
31308;SDS011;17936;52.446;10.840;2023-01-08T03:09:51;6.15;;;2.67;;
31308;SDS011;17936;52.446;10.840;2023-01-08T03:23:08;4.72;;;2.90;;
31308;SDS011;17936;52.446;10.840;2023-01-08T03:26:20;4.55;;;2.60;;
31308;SDS011;17936;52.446;10.840;2023-01-08T03:35:52;4.38;;;2.58;;
31308;SDS011;17936;52.446;10.840;2023-01-08T03:42:05;4.25;;;2.42;;
31308;SDS011;17936;52.446;10.840;2023-01-08T03:49:03;5.82;;;2.65;;
31308;SDS011;17936;52.446;10.840;2023-01-08T03:55:37;4.15;;;2.60;;
31308;SDS011;17936;52.446;10.840;2023-01-08T04:02:16;3.58;;;2.17;;
31308;SDS011;17936;52.446;10.840;2023-01-08T04:15:28;5.32;;;2.17;;
31308;SDS011;17936;52.446;10.840;2023-01-08T04:22:34;4.00;;;2.37;;
31308;SDS011;17936;52.446;10.840;2023-01-08T04:25:40;4.78;;;2.50;;
31308;SDS011;17936;52.446;10.840;2023-01-08T04:32:05;2.97;;;2.10;;
31308;SDS011;17936;52.446;10.840;2023-01-08T04:35:06;4.40;;;2.55;;
31308;SDS011;17936;52.446;10.840;2023-01-08T04:49:04;4.57;;;2.03;;
31308;SDS011;17936;52.446;10.840;2023-01-08T04:59:11;3.90;;;2.13;;
31308;SDS011;17936;52.446;10.840;2023-01-08T05:09:08;5.57;;;2.30;;
31308;SDS011;17936;52.446;10.840;2023-01-08T05:15:45;4.40;;;2.28;;
31308;SDS011;17936;52.446;10.840;2023-01-08T05:25:35;3.60;;;2.30;;
31308;SDS011;17936;52.446;10.840;2023-01-08T05:31:19;4.75;;;2.47;;
31308;SDS011;17936;52.446;10.840;2023-01-08T05:33:51;5.00;;;2.30;;
31308;SDS011;17936;52.446;10.840;2023-01-08T05:36:52;3.00;;;2.05;;
31308;SDS011;17936;52.446;10.840;2023-01-08T05:46:15;3.80;;;2.50;;
31308;SDS011;17936;52.446;10.840;2023-01-08T05:51:42;4.63;;;2.30;;
31308;SDS011;17936;52.446;10.840;2023-01-08T05:54:36;5.22;;;2.10;;
31308;SDS011;17936;52.446;10.840;2023-01-08T05:57:19;3.97;;;2.03;;
31308;SDS011;17936;52.446;10.840;2023-01-08T05:59:45;3.20;;;2.15;;
31308;SDS011;17936;52.446;10.840;2023-01-08T06:11:30;4.38;;;2.25;;
31308;SDS011;17936;52.446;10.840;2023-01-08T06:17:34;4.07;;;2.10;;
31308;SDS011;17936;52.446;10.840;2023-01-08T06:20:38;5.38;;;2.50;;
31308;SDS011;17936;52.446;10.840;2023-01-08T06:27:39;3.13;;;2.33;;
31308;SDS011;17936;52.446;10.840;2023-01-08T06:30:07;3.95;;;2.38;;
31308;SDS011;17936;52.446;10.840;2023-01-08T06:33:16;6.00;;;2.67;;
31308;SDS011;17936;52.446;10.840;2023-01-08T06:36:12;3.58;;;2.38;;
31308;SDS011;17936;52.446;10.840;2023-01-08T06:39:05;3.60;;;2.17;;
31308;SDS011;17936;52.446;10.840;2023-01-08T06:42:16;4.10;;;2.30;;
31308;SDS011;17936;52.446;10.840;2023-01-08T06:55:52;4.90;;;2.42;;
31308;SDS011;17936;52.446;10.840;2023-01-08T07:02:19;3.92;;;2.60;;
31308;SDS011;17936;52.446;10.840;2023-01-08T07:08:52;4.45;;;2.55;;
31308;SDS011;17936;52.446;10.840;2023-01-08T07:11:18;4.50;;;2.58;;
31308;SDS011;17936;52.446;10.840;2023-01-08T07:13:53;9.70;;;2.47;;
31308;SDS011;17936;52.446;10.840;2023-01-08T07:23:22;5.32;;;2.63;;
31308;SDS011;17936;52.446;10.840;2023-01-08T07:26:06;4.47;;;2.88;;
31308;SDS011;17936;52.446;10.840;2023-01-08T07:32:23;3.83;;;2.47;;
31308;SDS011;17936;52.446;10.840;2023-01-08T07:38:34;6.03;;;2.78;;
31308;SDS011;17936;52.446;10.840;2023-01-08T07:41:37;4.63;;;2.75;;
31308;SDS011;17936;52.446;10.840;2023-01-08T07:51:47;4.55;;;2.47;;
31308;SDS011;17936;52.446;10.840;2023-01-08T07:58:57;6.20;;;2.88;;
31308;SDS011;17936;52.446;10.840;2023-01-08T08:06:04;6.63;;;2.75;;
31308;SDS011;17936;52.446;10.840;2023-01-08T08:08:55;5.82;;;3.63;;
31308;SDS011;17936;52.446;10.840;2023-01-08T08:11:24;8.60;;;4.88;;
31308;SDS011;17936;52.446;10.840;2023-01-08T08:17:18;16.50;;;8.18;;
31308;SDS011;17936;52.446;10.840;2023-01-08T08:27:38;8.65;;;4.88;;
31308;SDS011;17936;52.446;10.840;2023-01-08T08:33:32;11.02;;;6.22;;
31308;SDS011;17936;52.446;10.840;2023-01-08T08:36:45;6.00;;;4.20;;
31308;SDS011;17936;52.446;10.840;2023-01-08T08:39:14;7.55;;;4.30;;
31308;SDS011;17936;52.446;10.840;2023-01-08T08:41:47;7.27;;;3.93;;
31308;SDS011;17936;52.446;10.840;2023-01-08T08:44:19;13.75;;;4.35;;
31308;SDS011;17936;52.446;10.840;2023-01-08T08:46:46;8.98;;;4.55;;
31308;SDS011;17936;52.446;10.840;2023-01-08T08:49:17;8.05;;;4.38;;
31308;SDS011;17936;52.446;10.840;2023-01-08T08:51:49;6.13;;;3.83;;
31308;SDS011;17936;52.446;10.840;2023-01-08T08:54:20;8.07;;;4.33;;
31308;SDS011;17936;52.446;10.840;2023-01-08T08:56:46;8.27;;;3.78;;
31308;SDS011;17936;52.446;10.840;2023-01-08T08:59:35;5.50;;;3.47;;
31308;SDS011;17936;52.446;10.840;2023-01-08T09:04:58;4.88;;;2.63;;
31308;SDS011;17936;52.446;10.840;2023-01-08T09:07:32;4.72;;;3.28;;
31308;SDS011;17936;52.446;10.840;2023-01-08T09:10:04;4.93;;;3.03;;
31308;SDS011;17936;52.446;10.840;2023-01-08T09:15:56;6.10;;;3.10;;
31308;SDS011;17936;52.446;10.840;2023-01-08T09:19:02;5.03;;;3.20;;
31308;SDS011;17936;52.446;10.840;2023-01-08T09:21:47;5.97;;;3.38;;
31308;SDS011;17936;52.446;10.840;2023-01-08T09:24:14;5.55;;;3.17;;
31308;SDS011;17936;52.446;10.840;2023-01-08T09:27:03;5.13;;;2.83;;
31308;SDS011;17936;52.446;10.840;2023-01-08T09:36:24;5.22;;;3.22;;
31308;SDS011;17936;52.446;10.840;2023-01-08T09:38:53;4.38;;;3.17;;
31308;SDS011;17936;52.446;10.840;2023-01-08T09:42:09;7.50;;;3.50;;
31308;SDS011;17936;52.446;10.840;2023-01-08T09:48:51;6.65;;;3.53;;
31308;SDS011;17936;52.446;10.840;2023-01-08T09:51:33;8.68;;;3.92;;
31308;SDS011;17936;52.446;10.840;2023-01-08T09:54:10;6.82;;;3.90;;
31308;SDS011;17936;52.446;10.840;2023-01-08T09:56:40;7.93;;;3.55;;
31308;SDS011;17936;52.446;10.840;2023-01-08T09:59:16;7.65;;;3.63;;
31308;SDS011;17936;52.446;10.840;2023-01-08T10:04:19;5.68;;;3.03;;
31308;SDS011;17936;52.446;10.840;2023-01-08T10:10:03;4.60;;;3.30;;
31308;SDS011;17936;52.446;10.840;2023-01-08T10:16:21;6.68;;;3.03;;
31308;SDS011;17936;52.446;10.840;2023-01-08T10:19:01;9.13;;;3.60;;
31308;SDS011;17936;52.446;10.840;2023-01-08T10:21:35;5.60;;;3.40;;
31308;SDS011;17936;52.446;10.840;2023-01-08T10:27:25;9.63;;;3.90;;
31308;SDS011;17936;52.446;10.840;2023-01-08T10:45:24;4.82;;;2.90;;
31308;SDS011;17936;52.446;10.840;2023-01-08T11:00:41;7.78;;;2.20;;
31308;SDS011;17936;52.446;10.840;2023-01-08T11:03:26;2.55;;;1.40;;
31308;SDS011;17936;52.446;10.840;2023-01-08T11:06:39;3.80;;;1.80;;
31308;SDS011;17936;52.446;10.840;2023-01-08T11:12:38;3.47;;;1.65;;
31308;SDS011;17936;52.446;10.840;2023-01-08T11:15:41;4.57;;;2.15;;
31308;SDS011;17936;52.446;10.840;2023-01-08T11:19:12;4.60;;;2.33;;
31308;SDS011;17936;52.446;10.840;2023-01-08T11:24:58;3.95;;;1.20;;
31308;SDS011;17936;52.446;10.840;2023-01-08T11:27:27;0.85;;;0.75;;
31308;SDS011;17936;52.446;10.840;2023-01-08T11:30:10;6.47;;;1.00;;
31308;SDS011;17936;52.446;10.840;2023-01-08T11:44:44;1.38;;;0.95;;
31308;SDS011;17936;52.446;10.840;2023-01-08T11:53:33;2.03;;;1.17;;
31308;SDS011;17936;52.446;10.840;2023-01-08T11:56:46;1.77;;;0.98;;
31308;SDS011;17936;52.446;10.840;2023-01-08T12:02:46;2.25;;;1.30;;
31308;SDS011;17936;52.446;10.840;2023-01-08T12:05:52;2.00;;;1.17;;
31308;SDS011;17936;52.446;10.840;2023-01-08T12:08:45;2.38;;;1.30;;
31308;SDS011;17936;52.446;10.840;2023-01-08T12:11:30;3.05;;;1.25;;
31308;SDS011;17936;52.446;10.840;2023-01-08T12:33:33;1.13;;;0.80;;
31308;SDS011;17936;52.446;10.840;2023-01-08T12:36:09;1.38;;;0.70;;
31308;SDS011;17936;52.446;10.840;2023-01-08T12:38:51;2.42;;;1.05;;
31308;SDS011;17936;52.446;10.840;2023-01-08T12:41:22;2.30;;;1.55;;
31308;SDS011;17936;52.446;10.840;2023-01-08T12:43:59;1.48;;;0.90;;
31308;SDS011;17936;52.446;10.840;2023-01-08T12:46:45;1.77;;;0.80;;
31308;SDS011;17936;52.446;10.840;2023-01-08T12:49:20;1.13;;;0.70;;
31308;SDS011;17936;52.446;10.840;2023-01-08T13:01:33;2.42;;;1.13;;
31308;SDS011;17936;52.446;10.840;2023-01-08T13:04:41;2.00;;;0.85;;
31308;SDS011;17936;52.446;10.840;2023-01-08T13:10:54;2.05;;;0.73;;
31308;SDS011;17936;52.446;10.840;2023-01-08T13:13:59;1.65;;;0.88;;
31308;SDS011;17936;52.446;10.840;2023-01-08T13:16:39;1.92;;;0.82;;
31308;SDS011;17936;52.446;10.840;2023-01-08T13:19:06;1.38;;;0.80;;
31308;SDS011;17936;52.446;10.840;2023-01-08T13:21:56;1.83;;;1.02;;
31308;SDS011;17936;52.446;10.840;2023-01-08T13:27:44;2.38;;;1.00;;
31308;SDS011;17936;52.446;10.840;2023-01-08T13:39:02;3.13;;;0.82;;
31308;SDS011;17936;52.446;10.840;2023-01-08T13:45:26;1.02;;;0.75;;
31308;SDS011;17936;52.446;10.840;2023-01-08T13:47:58;0.88;;;0.77;;
31308;SDS011;17936;52.446;10.840;2023-01-08T13:50:27;1.77;;;1.00;;
31308;SDS011;17936;52.446;10.840;2023-01-08T13:53:03;1.65;;;0.80;;
31308;SDS011;17936;52.446;10.840;2023-01-08T13:55:40;1.75;;;0.93;;
31308;SDS011;17936;52.446;10.840;2023-01-08T14:01:38;1.17;;;0.80;;
31308;SDS011;17936;52.446;10.840;2023-01-08T14:04:19;2.05;;;1.10;;
31308;SDS011;17936;52.446;10.840;2023-01-08T14:06:51;2.47;;;0.90;;
31308;SDS011;17936;52.446;10.840;2023-01-08T14:09:27;2.65;;;1.00;;
31308;SDS011;17936;52.446;10.840;2023-01-08T14:11:53;3.63;;;1.23;;
31308;SDS011;17936;52.446;10.840;2023-01-08T14:14:38;1.40;;;0.93;;
31308;SDS011;17936;52.446;10.840;2023-01-08T14:17:16;3.53;;;1.98;;
31308;SDS011;17936;52.446;10.840;2023-01-08T14:19:49;1.27;;;1.00;;
31308;SDS011;17936;52.446;10.840;2023-01-08T14:22:17;2.90;;;1.15;;
31308;SDS011;17936;52.446;10.840;2023-01-08T14:25:04;3.08;;;1.13;;
31308;SDS011;17936;52.446;10.840;2023-01-08T14:27:45;1.48;;;0.88;;
31308;SDS011;17936;52.446;10.840;2023-01-08T14:30:45;2.38;;;1.10;;
31308;SDS011;17936;52.446;10.840;2023-01-08T14:33:26;1.98;;;1.20;;
31308;SDS011;17936;52.446;10.840;2023-01-08T14:36:02;1.70;;;0.82;;
31308;SDS011;17936;52.446;10.840;2023-01-08T14:38:31;1.40;;;0.90;;
31308;SDS011;17936;52.446;10.840;2023-01-08T14:41:21;0.82;;;0.80;;
31308;SDS011;17936;52.446;10.840;2023-01-08T14:44:19;2.72;;;0.80;;
31308;SDS011;17936;52.446;10.840;2023-01-08T14:46:52;1.92;;;0.90;;
31308;SDS011;17936;52.446;10.840;2023-01-08T14:49:21;1.48;;;0.90;;
31308;SDS011;17936;52.446;10.840;2023-01-08T14:52:03;2.42;;;0.80;;
31308;SDS011;17936;52.446;10.840;2023-01-08T14:54:53;1.33;;;0.80;;
31308;SDS011;17936;52.446;10.840;2023-01-08T15:00:41;1.13;;;0.88;;
31308;SDS011;17936;52.446;10.840;2023-01-08T15:03:22;2.60;;;1.30;;
31308;SDS011;17936;52.446;10.840;2023-01-08T15:06:24;2.22;;;1.23;;
31308;SDS011;17936;52.446;10.840;2023-01-08T15:08:57;1.10;;;0.95;;
31308;SDS011;17936;52.446;10.840;2023-01-08T15:14:39;2.30;;;1.35;;
31308;SDS011;17936;52.446;10.840;2023-01-08T15:17:26;2.88;;;1.30;;
31308;SDS011;17936;52.446;10.840;2023-01-08T15:20:03;4.72;;;1.35;;
31308;SDS011;17936;52.446;10.840;2023-01-08T15:33:54;3.75;;;1.88;;
31308;SDS011;17936;52.446;10.840;2023-01-08T15:36:47;3.33;;;1.60;;
31308;SDS011;17936;52.446;10.840;2023-01-08T15:39:15;2.95;;;1.55;;
31308;SDS011;17936;52.446;10.840;2023-01-08T15:42:21;2.92;;;1.92;;
31308;SDS011;17936;52.446;10.840;2023-01-08T15:45:16;3.53;;;1.70;;
31308;SDS011;17936;52.446;10.840;2023-01-08T15:47:46;5.18;;;2.17;;
31308;SDS011;17936;52.446;10.840;2023-01-08T15:56:02;4.20;;;2.08;;
31308;SDS011;17936;52.446;10.840;2023-01-08T15:58:33;7.43;;;1.58;;
31308;SDS011;17936;52.446;10.840;2023-01-08T16:00:59;2.88;;;1.90;;
31308;SDS011;17936;52.446;10.840;2023-01-08T16:03:40;2.60;;;1.50;;
31308;SDS011;17936;52.446;10.840;2023-01-08T16:06:18;4.53;;;1.80;;
31308;SDS011;17936;52.446;10.840;2023-01-08T16:08:55;18.20;;;6.18;;
31308;SDS011;17936;52.446;10.840;2023-01-08T16:11:27;7.22;;;2.85;;
31308;SDS011;17936;52.446;10.840;2023-01-08T16:14:09;3.58;;;2.15;;
31308;SDS011;17936;52.446;10.840;2023-01-08T16:17:04;2.42;;;1.40;;
31308;SDS011;17936;52.446;10.840;2023-01-08T16:22:44;5.15;;;2.08;;
31308;SDS011;17936;52.446;10.840;2023-01-08T16:25:21;3.72;;;2.00;;
31308;SDS011;17936;52.446;10.840;2023-01-08T16:28:28;4.85;;;2.00;;
31308;SDS011;17936;52.446;10.840;2023-01-08T16:33:48;3.85;;;2.05;;
31308;SDS011;17936;52.446;10.840;2023-01-08T16:36:13;4.10;;;2.20;;
31308;SDS011;17936;52.446;10.840;2023-01-08T16:39:05;6.03;;;2.22;;
31308;SDS011;17936;52.446;10.840;2023-01-08T16:41:43;6.28;;;2.85;;
31308;SDS011;17936;52.446;10.840;2023-01-08T16:44:22;5.68;;;2.53;;
31308;SDS011;17936;52.446;10.840;2023-01-08T16:46:56;5.18;;;2.28;;
31308;SDS011;17936;52.446;10.840;2023-01-08T16:49:39;4.07;;;2.33;;
31308;SDS011;17936;52.446;10.840;2023-01-08T16:53:08;4.40;;;2.10;;
31308;SDS011;17936;52.446;10.840;2023-01-08T16:56:44;3.45;;;2.00;;
31308;SDS011;17936;52.446;10.840;2023-01-08T16:59:53;3.30;;;1.33;;
31308;SDS011;17936;52.446;10.840;2023-01-08T17:03:13;4.68;;;1.70;;
31308;SDS011;17936;52.446;10.840;2023-01-08T17:06:57;2.85;;;1.40;;
31308;SDS011;17936;52.446;10.840;2023-01-08T17:10:32;4.60;;;2.03;;
31308;SDS011;17936;52.446;10.840;2023-01-08T17:13:22;6.60;;;2.60;;
31308;SDS011;17936;52.446;10.840;2023-01-08T17:16:59;5.75;;;2.90;;
31308;SDS011;17936;52.446;10.840;2023-01-08T17:20:48;4.95;;;2.13;;
31308;SDS011;17936;52.446;10.840;2023-01-08T17:24:15;6.88;;;2.65;;
31308;SDS011;17936;52.446;10.840;2023-01-08T17:27:37;5.07;;;2.42;;
31308;SDS011;17936;52.446;10.840;2023-01-08T17:34:57;5.82;;;2.05;;
31308;SDS011;17936;52.446;10.840;2023-01-08T17:42:13;4.97;;;2.10;;
31308;SDS011;17936;52.446;10.840;2023-01-08T17:45:18;3.15;;;1.67;;
31308;SDS011;17936;52.446;10.840;2023-01-08T17:48:54;2.85;;;1.80;;
31308;SDS011;17936;52.446;10.840;2023-01-08T17:55:32;3.58;;;1.55;;
31308;SDS011;17936;52.446;10.840;2023-01-08T17:58:44;4.55;;;2.40;;
31308;SDS011;17936;52.446;10.840;2023-01-08T18:02:19;6.93;;;3.25;;
31308;SDS011;17936;52.446;10.840;2023-01-08T18:05:52;5.65;;;2.33;;
31308;SDS011;17936;52.446;10.840;2023-01-08T18:09:12;5.63;;;2.60;;
31308;SDS011;17936;52.446;10.840;2023-01-08T18:12:47;5.47;;;2.70;;
31308;SDS011;17936;52.446;10.840;2023-01-08T18:16:11;4.13;;;2.00;;
31308;SDS011;17936;52.446;10.840;2023-01-08T18:19:38;2.90;;;1.50;;
31308;SDS011;17936;52.446;10.840;2023-01-08T18:23:07;3.90;;;1.63;;
31308;SDS011;17936;52.446;10.840;2023-01-08T18:30:18;4.82;;;1.90;;
31308;SDS011;17936;52.446;10.840;2023-01-08T18:33:43;5.07;;;2.05;;
31308;SDS011;17936;52.446;10.840;2023-01-08T18:36:49;4.03;;;1.90;;
31308;SDS011;17936;52.446;10.840;2023-01-08T18:40:31;3.80;;;1.98;;
31308;SDS011;17936;52.446;10.840;2023-01-08T18:44:02;5.00;;;2.63;;
31308;SDS011;17936;52.446;10.840;2023-01-08T18:47:30;8.13;;;3.80;;
31308;SDS011;17936;52.446;10.840;2023-01-08T18:51:08;4.97;;;2.13;;
31308;SDS011;17936;52.446;10.840;2023-01-08T18:55:08;3.70;;;1.80;;
31308;SDS011;17936;52.446;10.840;2023-01-08T18:58:55;12.23;;;5.90;;
31308;SDS011;17936;52.446;10.840;2023-01-08T19:02:35;19.98;;;10.07;;
31308;SDS011;17936;52.446;10.840;2023-01-08T19:09:44;2.83;;;1.52;;
31308;SDS011;17936;52.446;10.840;2023-01-08T19:13:22;2.80;;;1.83;;
31308;SDS011;17936;52.446;10.840;2023-01-08T19:16:55;2.83;;;1.58;;
31308;SDS011;17936;52.446;10.840;2023-01-08T19:20:15;3.08;;;1.70;;
31308;SDS011;17936;52.446;10.840;2023-01-08T19:23:03;3.38;;;1.80;;
31308;SDS011;17936;52.446;10.840;2023-01-08T19:26:36;2.40;;;1.45;;
31308;SDS011;17936;52.446;10.840;2023-01-08T19:30:04;3.03;;;1.83;;
31308;SDS011;17936;52.446;10.840;2023-01-08T19:33:32;3.15;;;1.63;;
31308;SDS011;17936;52.446;10.840;2023-01-08T19:36:36;5.90;;;1.63;;
31308;SDS011;17936;52.446;10.840;2023-01-08T19:40:16;2.30;;;1.50;;
31308;SDS011;17936;52.446;10.840;2023-01-08T19:43:53;3.05;;;1.60;;
31308;SDS011;17936;52.446;10.840;2023-01-08T19:47:12;2.97;;;1.40;;
31308;SDS011;17936;52.446;10.840;2023-01-08T19:50:31;1.95;;;1.15;;
31308;SDS011;17936;52.446;10.840;2023-01-08T19:53:37;1.85;;;1.08;;
31308;SDS011;17936;52.446;10.840;2023-01-08T19:57:10;2.70;;;1.80;;
31308;SDS011;17936;52.446;10.840;2023-01-08T19:59:59;2.53;;;1.50;;
31308;SDS011;17936;52.446;10.840;2023-01-08T20:03:08;3.08;;;1.63;;
31308;SDS011;17936;52.446;10.840;2023-01-08T20:05:38;6.43;;;1.52;;
31308;SDS011;17936;52.446;10.840;2023-01-08T20:08:24;2.70;;;1.70;;
31308;SDS011;17936;52.446;10.840;2023-01-08T20:11:18;5.63;;;2.00;;
31308;SDS011;17936;52.446;10.840;2023-01-08T20:14:20;4.13;;;1.88;;
31308;SDS011;17936;52.446;10.840;2023-01-08T20:17:32;2.75;;;1.65;;
31308;SDS011;17936;52.446;10.840;2023-01-08T20:20:27;3.85;;;1.80;;
31308;SDS011;17936;52.446;10.840;2023-01-08T20:23:57;2.75;;;1.60;;
31308;SDS011;17936;52.446;10.840;2023-01-08T20:27:03;2.95;;;1.60;;
31308;SDS011;17936;52.446;10.840;2023-01-08T20:30:30;1.65;;;1.25;;
31308;SDS011;17936;52.446;10.840;2023-01-08T20:32:59;2.38;;;1.52;;
31308;SDS011;17936;52.446;10.840;2023-01-08T20:36:07;4.57;;;1.42;;
31308;SDS011;17936;52.446;10.840;2023-01-08T20:38:35;3.72;;;1.90;;
31308;SDS011;17936;52.446;10.840;2023-01-08T20:41:34;4.53;;;2.45;;
31308;SDS011;17936;52.446;10.840;2023-01-08T20:45:06;6.43;;;2.50;;
31308;SDS011;17936;52.446;10.840;2023-01-08T20:47:54;7.72;;;2.60;;
31308;SDS011;17936;52.446;10.840;2023-01-08T20:51:02;7.13;;;2.85;;
31308;SDS011;17936;52.446;10.840;2023-01-08T20:54:45;10.65;;;4.40;;
31308;SDS011;17936;52.446;10.840;2023-01-08T20:58:41;20.13;;;7.13;;
31308;SDS011;17936;52.446;10.840;2023-01-08T21:02:19;45.10;;;13.23;;
31308;SDS011;17936;52.446;10.840;2023-01-08T21:06:05;13.27;;;6.55;;
31308;SDS011;17936;52.446;10.840;2023-01-08T21:09:38;9.30;;;5.38;;
31308;SDS011;17936;52.446;10.840;2023-01-08T21:13:18;3.67;;;2.25;;
31308;SDS011;17936;52.446;10.840;2023-01-08T21:16:51;4.75;;;2.63;;
31308;SDS011;17936;52.446;10.840;2023-01-08T21:19:44;8.73;;;4.05;;
31308;SDS011;17936;52.446;10.840;2023-01-08T21:23:17;12.48;;;6.35;;
31308;SDS011;17936;52.446;10.840;2023-01-08T21:26:37;12.18;;;6.97;;
31308;SDS011;17936;52.446;10.840;2023-01-08T21:30:07;10.73;;;5.68;;
31308;SDS011;17936;52.446;10.840;2023-01-08T21:33:32;3.63;;;2.33;;
31308;SDS011;17936;52.446;10.840;2023-01-08T21:37:04;4.03;;;2.03;;
31308;SDS011;17936;52.446;10.840;2023-01-08T21:40:37;2.45;;;1.52;;
31308;SDS011;17936;52.446;10.840;2023-01-08T21:43:52;3.72;;;1.60;;
31308;SDS011;17936;52.446;10.840;2023-01-08T21:47:19;2.53;;;1.38;;
31308;SDS011;17936;52.446;10.840;2023-01-08T21:50:56;3.40;;;1.80;;
31308;SDS011;17936;52.446;10.840;2023-01-08T21:54:33;4.88;;;1.63;;
31308;SDS011;17936;52.446;10.840;2023-01-08T21:58:03;3.22;;;1.45;;
31308;SDS011;17936;52.446;10.840;2023-01-08T22:01:38;4.95;;;1.52;;
31308;SDS011;17936;52.446;10.840;2023-01-08T22:04:52;2.80;;;1.20;;
31308;SDS011;17936;52.446;10.840;2023-01-08T22:08:18;1.02;;;0.85;;
31308;SDS011;17936;52.446;10.840;2023-01-08T22:11:32;1.85;;;1.15;;
31308;SDS011;17936;52.446;10.840;2023-01-08T22:15:13;3.35;;;1.33;;
31308;SDS011;17936;52.446;10.840;2023-01-08T22:18:31;2.60;;;1.10;;
31308;SDS011;17936;52.446;10.840;2023-01-08T22:22:13;3.30;;;1.45;;
31308;SDS011;17936;52.446;10.840;2023-01-08T22:25:49;3.15;;;1.92;;
31308;SDS011;17936;52.446;10.840;2023-01-08T22:28:16;3.53;;;1.77;;
31308;SDS011;17936;52.446;10.840;2023-01-08T22:34:36;3.30;;;1.75;;
31308;SDS011;17936;52.446;10.840;2023-01-08T22:37:47;7.63;;;1.80;;
31308;SDS011;17936;52.446;10.840;2023-01-08T22:40:25;3.58;;;1.98;;
31308;SDS011;17936;52.446;10.840;2023-01-08T22:43:56;3.85;;;1.60;;
31308;SDS011;17936;52.446;10.840;2023-01-08T22:47:29;3.60;;;1.73;;
31308;SDS011;17936;52.446;10.840;2023-01-08T22:51:03;3.83;;;1.88;;
31308;SDS011;17936;52.446;10.840;2023-01-08T22:54:16;2.58;;;1.52;;
31308;SDS011;17936;52.446;10.840;2023-01-08T22:57:43;3.20;;;1.90;;
31308;SDS011;17936;52.446;10.840;2023-01-08T23:01:22;2.70;;;1.65;;
31308;SDS011;17936;52.446;10.840;2023-01-08T23:04:48;6.80;;;3.50;;
31308;SDS011;17936;52.446;10.840;2023-01-08T23:08:19;7.45;;;4.32;;
31308;SDS011;17936;52.446;10.840;2023-01-08T23:11:16;9.20;;;4.22;;
31308;SDS011;17936;52.446;10.840;2023-01-08T23:14:46;6.03;;;3.05;;
31308;SDS011;17936;52.446;10.840;2023-01-08T23:18:14;4.82;;;1.92;;
31308;SDS011;17936;52.446;10.840;2023-01-08T23:21:06;3.95;;;2.03;;
31308;SDS011;17936;52.446;10.840;2023-01-08T23:24:37;3.35;;;1.58;;
31308;SDS011;17936;52.446;10.840;2023-01-08T23:28:05;6.03;;;1.50;;
31308;SDS011;17936;52.446;10.840;2023-01-08T23:31:37;3.47;;;1.58;;
31308;SDS011;17936;52.446;10.840;2023-01-08T23:34:27;3.75;;;1.63;;
31308;SDS011;17936;52.446;10.840;2023-01-08T23:47:13;3.58;;;2.45;;
31308;SDS011;17936;52.446;10.840;2023-01-08T23:50:03;3.47;;;1.83;;